sensor_id;sensor_type;location;lat;lon;timestamp;pressure;altitude;pressure_sealevel;temperature;humidity
78198;BME280;67472;51.554;7.812;2023-09-19T00:02:40;99885.75;;;18.76;100.00
78198;BME280;67472;51.554;7.812;2023-09-19T00:05:26;99870.97;;;18.80;100.00
78198;BME280;67472;51.554;7.812;2023-09-19T00:08:13;99873.78;;;18.72;100.00
78198;BME280;67472;51.554;7.812;2023-09-19T00:10:59;99881.03;;;18.78;100.00
78198;BME280;67472;51.554;7.812;2023-09-19T00:13:47;99875.34;;;18.94;100.00
78198;BME280;67472;51.554;7.812;2023-09-19T00:16:34;99885.50;;;18.65;100.00
78198;BME280;67472;51.554;7.812;2023-09-19T00:19:23;99879.03;;;18.52;100.00
78198;BME280;67472;51.554;7.812;2023-09-19T00:22:09;99881.00;;;18.72;100.00
78198;BME280;67472;51.554;7.812;2023-09-19T00:24:55;99887.81;;;18.46;100.00
78198;BME280;67472;51.554;7.812;2023-09-19T00:27:41;99883.59;;;18.58;100.00
78198;BME280;67472;51.554;7.812;2023-09-19T00:30:29;99896.41;;;18.35;100.00
78198;BME280;67472;51.554;7.812;2023-09-19T00:33:15;99894.00;;;18.47;100.00
78198;BME280;67472;51.554;7.812;2023-09-19T00:36:05;99893.16;;;18.46;100.00
78198;BME280;67472;51.554;7.812;2023-09-19T00:38:51;99901.66;;;18.50;100.00
78198;BME280;67472;51.554;7.812;2023-09-19T00:41:37;99893.50;;;18.30;100.00
78198;BME280;67472;51.554;7.812;2023-09-19T00:44:25;99907.53;;;18.39;100.00
78198;BME280;67472;51.554;7.812;2023-09-19T00:47:13;99906.25;;;18.35;100.00
78198;BME280;67472;51.554;7.812;2023-09-19T00:50:04;99918.66;;;18.15;100.00
78198;BME280;67472;51.554;7.812;2023-09-19T00:52:54;99922.31;;;18.35;100.00
78198;BME280;67472;51.554;7.812;2023-09-19T00:55:42;99921.63;;;18.26;100.00
78198;BME280;67472;51.554;7.812;2023-09-19T00:58:30;99917.06;;;18.20;100.00
78198;BME280;67472;51.554;7.812;2023-09-19T01:01:19;99918.00;;;18.34;100.00
78198;BME280;67472;51.554;7.812;2023-09-19T01:04:06;99922.22;;;18.22;100.00
78198;BME280;67472;51.554;7.812;2023-09-19T01:06:54;99923.00;;;18.16;100.00
78198;BME280;67472;51.554;7.812;2023-09-19T01:09:42;99923.91;;;18.29;100.00
78198;BME280;67472;51.554;7.812;2023-09-19T01:12:35;99943.75;;;18.14;100.00
78198;BME280;67472;51.554;7.812;2023-09-19T01:15:35;99951.34;;;17.89;100.00
78198;BME280;67472;51.554;7.812;2023-09-19T01:18:31;99946.63;;;17.91;100.00
78198;BME280;67472;51.554;7.812;2023-09-19T01:21:28;99940.78;;;17.60;100.00
78198;BME280;67472;51.554;7.812;2023-09-19T01:24:27;99945.44;;;17.93;100.00
78198;BME280;67472;51.554;7.812;2023-09-19T01:27:41;99951.03;;;17.77;100.00
78198;BME280;67472;51.554;7.812;2023-09-19T01:30:32;99947.84;;;17.67;100.00
78198;BME280;67472;51.554;7.812;2023-09-19T01:33:21;99950.56;;;17.52;100.00
78198;BME280;67472;51.554;7.812;2023-09-19T01:36:07;99957.72;;;17.52;100.00
78198;BME280;67472;51.554;7.812;2023-09-19T01:38:54;99955.59;;;17.62;100.00
78198;BME280;67472;51.554;7.812;2023-09-19T01:41:48;99955.66;;;17.69;100.00
78198;BME280;67472;51.554;7.812;2023-09-19T01:44:44;99961.50;;;17.58;100.00
78198;BME280;67472;51.554;7.812;2023-09-19T01:47:35;99966.34;;;17.69;100.00
78198;BME280;67472;51.554;7.812;2023-09-19T01:50:29;99969.78;;;17.63;100.00
78198;BME280;67472;51.554;7.812;2023-09-19T01:53:23;99966.84;;;17.58;100.00
78198;BME280;67472;51.554;7.812;2023-09-19T01:56:30;99972.09;;;17.51;100.00
78198;BME280;67472;51.554;7.812;2023-09-19T01:59:24;99981.44;;;17.40;100.00
78198;BME280;67472;51.554;7.812;2023-09-19T02:02:13;99991.78;;;17.50;100.00
78198;BME280;67472;51.554;7.812;2023-09-19T02:05:03;99981.09;;;17.65;100.00
78198;BME280;67472;51.554;7.812;2023-09-19T02:07:50;99976.06;;;17.55;100.00
78198;BME280;67472;51.554;7.812;2023-09-19T02:10:37;99979.50;;;17.34;100.00
78198;BME280;67472;51.554;7.812;2023-09-19T02:13:25;99984.72;;;17.42;100.00
78198;BME280;67472;51.554;7.812;2023-09-19T02:16:12;99981.19;;;17.21;100.00
78198;BME280;67472;51.554;7.812;2023-09-19T02:19:05;99985.00;;;17.33;100.00
78198;BME280;67472;51.554;7.812;2023-09-19T02:21:53;99989.34;;;17.34;100.00
78198;BME280;67472;51.554;7.812;2023-09-19T02:24:40;99981.72;;;17.16;100.00
78198;BME280;67472;51.554;7.812;2023-09-19T02:27:27;99983.91;;;17.27;100.00
78198;BME280;67472;51.554;7.812;2023-09-19T02:30:13;99986.22;;;17.30;100.00
78198;BME280;67472;51.554;7.812;2023-09-19T02:33:00;99989.25;;;17.27;100.00
78198;BME280;67472;51.554;7.812;2023-09-19T02:35:47;99988.25;;;17.28;100.00
78198;BME280;67472;51.554;7.812;2023-09-19T02:38:35;99977.59;;;17.14;100.00
78198;BME280;67472;51.554;7.812;2023-09-19T02:41:22;99985.81;;;17.12;100.00
78198;BME280;67472;51.554;7.812;2023-09-19T02:44:08;99978.59;;;17.13;100.00
78198;BME280;67472;51.554;7.812;2023-09-19T02:46:55;99984.69;;;17.07;100.00
78198;BME280;67472;51.554;7.812;2023-09-19T02:49:42;99991.41;;;17.17;100.00
78198;BME280;67472;51.554;7.812;2023-09-19T02:52:29;99990.59;;;17.02;100.00
78198;BME280;67472;51.554;7.812;2023-09-19T02:55:18;100003.19;;;17.08;100.00
78198;BME280;67472;51.554;7.812;2023-09-19T02:58:05;99994.34;;;17.08;100.00
78198;BME280;67472;51.554;7.812;2023-09-19T03:00:52;100007.06;;;16.91;100.00
78198;BME280;67472;51.554;7.812;2023-09-19T03:03:40;100005.41;;;16.90;100.00
78198;BME280;67472;51.554;7.812;2023-09-19T03:06:27;100008.44;;;17.02;100.00
78198;BME280;67472;51.554;7.812;2023-09-19T03:09:15;100004.03;;;16.94;100.00
78198;BME280;67472;51.554;7.812;2023-09-19T03:12:03;100001.81;;;16.98;100.00
78198;BME280;67472;51.554;7.812;2023-09-19T03:14:52;100007.22;;;17.04;100.00
78198;BME280;67472;51.554;7.812;2023-09-19T03:17:42;100012.66;;;16.81;100.00
78198;BME280;67472;51.554;7.812;2023-09-19T03:20:29;100012.28;;;16.84;100.00
78198;BME280;67472;51.554;7.812;2023-09-19T03:23:16;100016.44;;;16.87;100.00
78198;BME280;67472;51.554;7.812;2023-09-19T03:26:02;100020.28;;;16.70;100.00
78198;BME280;67472;51.554;7.812;2023-09-19T03:28:51;100022.97;;;16.84;100.00
78198;BME280;67472;51.554;7.812;2023-09-19T03:31:37;100023.44;;;16.88;100.00
78198;BME280;67472;51.554;7.812;2023-09-19T03:34:26;100027.41;;;16.77;100.00
78198;BME280;67472;51.554;7.812;2023-09-19T03:37:12;100025.47;;;17.01;100.00
78198;BME280;67472;51.554;7.812;2023-09-19T03:39:59;100021.41;;;16.90;100.00
78198;BME280;67472;51.554;7.812;2023-09-19T03:42:50;100023.97;;;16.98;100.00
78198;BME280;67472;51.554;7.812;2023-09-19T03:45:37;100019.66;;;16.82;100.00
78198;BME280;67472;51.554;7.812;2023-09-19T03:48:25;100018.81;;;16.82;100.00
78198;BME280;67472;51.554;7.812;2023-09-19T03:51:11;100021.97;;;17.00;100.00
78198;BME280;67472;51.554;7.812;2023-09-19T03:53:57;100013.41;;;16.90;100.00
78198;BME280;67472;51.554;7.812;2023-09-19T03:56:43;100020.88;;;16.94;100.00
78198;BME280;67472;51.554;7.812;2023-09-19T03:59:30;100022.72;;;16.94;100.00
78198;BME280;67472;51.554;7.812;2023-09-19T04:02:17;100019.81;;;16.81;100.00
78198;BME280;67472;51.554;7.812;2023-09-19T04:05:08;100024.28;;;16.88;100.00
78198;BME280;67472;51.554;7.812;2023-09-19T04:07:55;100022.97;;;16.84;100.00
78198;BME280;67472;51.554;7.812;2023-09-19T04:10:42;100021.59;;;16.74;100.00
78198;BME280;67472;51.554;7.812;2023-09-19T04:13:29;100013.00;;;16.64;100.00
78198;BME280;67472;51.554;7.812;2023-09-19T04:16:15;100023.41;;;16.73;100.00
78198;BME280;67472;51.554;7.812;2023-09-19T04:19:03;100023.41;;;16.73;100.00
78198;BME280;67472;51.554;7.812;2023-09-19T04:21:50;100023.06;;;16.76;100.00
78198;BME280;67472;51.554;7.812;2023-09-19T04:24:36;100007.41;;;16.59;100.00
78198;BME280;67472;51.554;7.812;2023-09-19T04:27:22;100016.25;;;16.74;100.00
78198;BME280;67472;51.554;7.812;2023-09-19T04:30:08;100014.09;;;16.55;100.00
78198;BME280;67472;51.554;7.812;2023-09-19T04:32:56;100014.69;;;16.65;100.00
78198;BME280;67472;51.554;7.812;2023-09-19T04:35:43;100013.97;;;16.85;100.00
78198;BME280;67472;51.554;7.812;2023-09-19T04:38:30;100023.63;;;16.49;100.00
78198;BME280;67472;51.554;7.812;2023-09-19T04:41:16;100024.69;;;16.63;100.00
78198;BME280;67472;51.554;7.812;2023-09-19T04:44:02;100030.94;;;16.55;100.00
78198;BME280;67472;51.554;7.812;2023-09-19T04:46:48;100037.22;;;16.62;100.00
78198;BME280;67472;51.554;7.812;2023-09-19T04:49:35;100038.47;;;16.66;100.00
78198;BME280;67472;51.554;7.812;2023-09-19T04:52:23;100039.44;;;16.73;100.00
78198;BME280;67472;51.554;7.812;2023-09-19T04:55:09;100038.78;;;16.71;100.00
78198;BME280;67472;51.554;7.812;2023-09-19T04:57:55;100047.19;;;16.60;100.00
78198;BME280;67472;51.554;7.812;2023-09-19T05:00:42;100048.78;;;16.69;100.00
78198;BME280;67472;51.554;7.812;2023-09-19T05:03:28;100046.91;;;16.55;100.00
78198;BME280;67472;51.554;7.812;2023-09-19T05:06:14;100049.34;;;16.65;100.00
78198;BME280;67472;51.554;7.812;2023-09-19T05:09:01;100053.00;;;16.64;100.00
78198;BME280;67472;51.554;7.812;2023-09-19T05:11:50;100061.47;;;16.67;100.00
78198;BME280;67472;51.554;7.812;2023-09-19T05:14:38;100066.47;;;16.85;100.00
78198;BME280;67472;51.554;7.812;2023-09-19T05:17:25;100067.94;;;16.73;100.00
78198;BME280;67472;51.554;7.812;2023-09-19T05:20:11;100065.72;;;16.76;100.00
78198;BME280;67472;51.554;7.812;2023-09-19T05:23:00;100072.75;;;16.77;100.00
78198;BME280;67472;51.554;7.812;2023-09-19T05:25:48;100081.34;;;16.65;100.00
78198;BME280;67472;51.554;7.812;2023-09-19T05:28:34;100093.00;;;16.64;100.00
78198;BME280;67472;51.554;7.812;2023-09-19T05:31:20;100093.56;;;16.59;100.00
78198;BME280;67472;51.554;7.812;2023-09-19T05:34:07;100102.03;;;16.63;100.00
78198;BME280;67472;51.554;7.812;2023-09-19T05:36:54;100110.16;;;16.84;100.00
78198;BME280;67472;51.554;7.812;2023-09-19T05:39:40;100113.16;;;16.66;100.00
78198;BME280;67472;51.554;7.812;2023-09-19T05:42:28;100115.69;;;16.82;100.00
78198;BME280;67472;51.554;7.812;2023-09-19T05:45:14;100118.97;;;16.70;100.00
78198;BME280;67472;51.554;7.812;2023-09-19T05:48:08;100116.78;;;16.73;100.00
78198;BME280;67472;51.554;7.812;2023-09-19T05:50:55;100119.44;;;16.73;100.00
78198;BME280;67472;51.554;7.812;2023-09-19T05:53:41;100118.31;;;16.68;100.00
78198;BME280;67472;51.554;7.812;2023-09-19T05:56:28;100129.88;;;16.83;100.00
78198;BME280;67472;51.554;7.812;2023-09-19T05:59:15;100135.56;;;16.80;100.00
78198;BME280;67472;51.554;7.812;2023-09-19T06:02:01;100134.41;;;16.97;100.00
78198;BME280;67472;51.554;7.812;2023-09-19T06:04:50;100140.47;;;16.91;100.00
78198;BME280;67472;51.554;7.812;2023-09-19T06:07:37;100144.09;;;16.75;100.00
78198;BME280;67472;51.554;7.812;2023-09-19T06:10:24;100136.56;;;16.79;100.00
78198;BME280;67472;51.554;7.812;2023-09-19T06:13:09;100146.22;;;16.80;100.00
78198;BME280;67472;51.554;7.812;2023-09-19T06:15:57;100150.22;;;16.99;100.00
78198;BME280;67472;51.554;7.812;2023-09-19T06:18:44;100135.72;;;16.78;100.00
78198;BME280;67472;51.554;7.812;2023-09-19T06:21:31;100141.66;;;16.88;100.00
78198;BME280;67472;51.554;7.812;2023-09-19T06:24:18;100133.56;;;16.97;100.00
78198;BME280;67472;51.554;7.812;2023-09-19T06:27:06;100128.13;;;16.90;100.00
78198;BME280;67472;51.554;7.812;2023-09-19T06:29:53;100137.53;;;17.01;100.00
78198;BME280;67472;51.554;7.812;2023-09-19T06:32:41;100140.50;;;17.06;100.00
78198;BME280;67472;51.554;7.812;2023-09-19T06:35:28;100138.72;;;16.98;100.00
78198;BME280;67472;51.554;7.812;2023-09-19T06:38:17;100131.03;;;17.18;100.00
78198;BME280;67472;51.554;7.812;2023-09-19T06:41:04;100130.66;;;17.06;100.00
78198;BME280;67472;51.554;7.812;2023-09-19T06:43:51;100132.50;;;17.20;100.00
78198;BME280;67472;51.554;7.812;2023-09-19T06:46:52;100139.59;;;17.42;100.00
78198;BME280;67472;51.554;7.812;2023-09-19T06:49:40;100144.28;;;17.40;100.00
78198;BME280;67472;51.554;7.812;2023-09-19T06:52:28;100130.94;;;17.40;100.00
78198;BME280;67472;51.554;7.812;2023-09-19T06:55:15;100115.81;;;17.33;100.00
78198;BME280;67472;51.554;7.812;2023-09-19T06:58:01;100128.06;;;17.42;100.00
78198;BME280;67472;51.554;7.812;2023-09-19T07:00:47;100131.31;;;17.37;100.00
78198;BME280;67472;51.554;7.812;2023-09-19T07:03:34;100127.06;;;17.43;100.00
78198;BME280;67472;51.554;7.812;2023-09-19T07:06:22;100133.50;;;17.48;100.00
78198;BME280;67472;51.554;7.812;2023-09-19T07:09:08;100148.34;;;17.51;100.00
78198;BME280;67472;51.554;7.812;2023-09-19T07:11:55;100156.75;;;17.63;100.00
78198;BME280;67472;51.554;7.812;2023-09-19T07:14:41;100145.31;;;17.69;100.00
78198;BME280;67472;51.554;7.812;2023-09-19T07:17:27;100153.91;;;17.79;100.00
78198;BME280;67472;51.554;7.812;2023-09-19T07:20:14;100148.16;;;17.52;100.00
78198;BME280;67472;51.554;7.812;2023-09-19T07:23:02;100162.91;;;17.78;100.00
78198;BME280;67472;51.554;7.812;2023-09-19T07:25:48;100152.41;;;17.76;100.00
78198;BME280;67472;51.554;7.812;2023-09-19T07:28:35;100148.72;;;17.63;100.00
78198;BME280;67472;51.554;7.812;2023-09-19T07:31:21;100148.72;;;17.77;100.00
78198;BME280;67472;51.554;7.812;2023-09-19T07:34:07;100156.47;;;17.72;100.00
78198;BME280;67472;51.554;7.812;2023-09-19T07:36:54;100154.25;;;17.90;100.00
78198;BME280;67472;51.554;7.812;2023-09-19T07:39:43;100154.28;;;18.12;100.00
78198;BME280;67472;51.554;7.812;2023-09-19T07:42:29;100171.44;;;18.02;100.00
78198;BME280;67472;51.554;7.812;2023-09-19T07:45:16;100150.84;;;18.18;100.00
78198;BME280;67472;51.554;7.812;2023-09-19T07:48:03;100164.72;;;18.06;100.00
78198;BME280;67472;51.554;7.812;2023-09-19T07:50:50;100158.00;;;18.11;100.00
78198;BME280;67472;51.554;7.812;2023-09-19T07:53:36;100166.38;;;18.08;100.00
78198;BME280;67472;51.554;7.812;2023-09-19T07:56:25;100157.31;;;18.08;100.00
78198;BME280;67472;51.554;7.812;2023-09-19T07:59:12;100172.31;;;18.24;100.00
78198;BME280;67472;51.554;7.812;2023-09-19T08:01:58;100159.09;;;18.37;100.00
78198;BME280;67472;51.554;7.812;2023-09-19T08:04:45;100161.13;;;18.50;100.00
78198;BME280;67472;51.554;7.812;2023-09-19T08:07:32;100159.88;;;18.31;100.00
78198;BME280;67472;51.554;7.812;2023-09-19T08:10:18;100157.69;;;18.41;100.00
78198;BME280;67472;51.554;7.812;2023-09-19T08:13:07;100152.59;;;18.25;100.00
78198;BME280;67472;51.554;7.812;2023-09-19T08:15:56;100169.47;;;18.47;100.00
78198;BME280;67472;51.554;7.812;2023-09-19T08:18:42;100175.19;;;18.58;100.00
78198;BME280;67472;51.554;7.812;2023-09-19T08:21:28;100171.38;;;18.68;100.00
78198;BME280;67472;51.554;7.812;2023-09-19T08:24:14;100175.13;;;18.73;100.00
78198;BME280;67472;51.554;7.812;2023-09-19T08:27:03;100165.94;;;18.82;100.00
78198;BME280;67472;51.554;7.812;2023-09-19T08:29:54;100168.03;;;18.87;100.00
78198;BME280;67472;51.554;7.812;2023-09-19T08:32:41;100165.63;;;18.92;100.00
78198;BME280;67472;51.554;7.812;2023-09-19T08:35:28;100168.38;;;18.77;100.00
78198;BME280;67472;51.554;7.812;2023-09-19T08:38:14;100171.41;;;18.95;100.00
78198;BME280;67472;51.554;7.812;2023-09-19T08:41:01;100169.22;;;18.78;100.00
78198;BME280;67472;51.554;7.812;2023-09-19T08:43:50;100172.38;;;18.88;100.00
78198;BME280;67472;51.554;7.812;2023-09-19T08:46:41;100194.41;;;19.11;100.00
78198;BME280;67472;51.554;7.812;2023-09-19T08:49:34;100189.34;;;19.23;100.00
78198;BME280;67472;51.554;7.812;2023-09-19T08:52:25;100185.38;;;19.12;100.00
78198;BME280;67472;51.554;7.812;2023-09-19T08:55:14;100184.53;;;19.11;100.00
78198;BME280;67472;51.554;7.812;2023-09-19T08:58:10;100181.69;;;19.41;100.00
78198;BME280;67472;51.554;7.812;2023-09-19T09:00:58;100190.91;;;19.10;100.00
78198;BME280;67472;51.554;7.812;2023-09-19T09:03:48;100185.63;;;18.96;100.00
78198;BME280;67472;51.554;7.812;2023-09-19T09:06:35;100191.19;;;19.22;100.00
78198;BME280;67472;51.554;7.812;2023-09-19T09:09:24;100188.19;;;19.32;100.00
78198;BME280;67472;51.554;7.812;2023-09-19T09:12:12;100189.06;;;19.39;100.00
78198;BME280;67472;51.554;7.812;2023-09-19T09:14:58;100184.22;;;19.28;100.00
78198;BME280;67472;51.554;7.812;2023-09-19T09:17:46;100180.31;;;19.30;100.00
78198;BME280;67472;51.554;7.812;2023-09-19T09:20:35;100191.97;;;19.16;100.00
78198;BME280;67472;51.554;7.812;2023-09-19T09:23:21;100195.09;;;19.41;100.00
78198;BME280;67472;51.554;7.812;2023-09-19T09:26:07;100188.94;;;19.47;100.00
78198;BME280;67472;51.554;7.812;2023-09-19T09:28:54;100184.00;;;19.23;100.00
78198;BME280;67472;51.554;7.812;2023-09-19T09:31:40;100186.06;;;19.27;100.00
78198;BME280;67472;51.554;7.812;2023-09-19T09:34:32;100177.56;;;19.45;100.00
78198;BME280;67472;51.554;7.812;2023-09-19T09:37:20;100184.84;;;19.92;100.00
78198;BME280;67472;51.554;7.812;2023-09-19T09:40:07;100191.00;;;19.86;100.00
78198;BME280;67472;51.554;7.812;2023-09-19T09:43:31;100178.78;;;19.77;100.00
78198;BME280;67472;51.554;7.812;2023-09-19T09:46:21;100173.66;;;19.75;100.00
78198;BME280;67472;51.554;7.812;2023-09-19T09:49:26;100180.31;;;19.92;100.00
78198;BME280;67472;51.554;7.812;2023-09-19T09:52:19;100166.75;;;20.00;100.00
78198;BME280;67472;51.554;7.812;2023-09-19T09:55:08;100167.19;;;20.04;100.00
78198;BME280;67472;51.554;7.812;2023-09-19T09:58:15;100173.16;;;20.06;100.00
78198;BME280;67472;51.554;7.812;2023-09-19T10:01:05;100163.91;;;20.15;100.00
78198;BME280;67472;51.554;7.812;2023-09-19T10:03:57;100154.97;;;19.95;99.24
78198;BME280;67472;51.554;7.812;2023-09-19T10:06:45;100142.81;;;19.99;98.21
78198;BME280;67472;51.554;7.812;2023-09-19T10:09:45;100142.66;;;20.13;98.24
78198;BME280;67472;51.554;7.812;2023-09-19T10:12:33;100150.13;;;20.24;95.72
78198;BME280;67472;51.554;7.812;2023-09-19T10:15:20;100160.81;;;20.18;96.25
78198;BME280;67472;51.554;7.812;2023-09-19T10:18:06;100147.53;;;19.90;94.58
78198;BME280;67472;51.554;7.812;2023-09-19T10:20:54;100153.00;;;20.16;95.13
78198;BME280;67472;51.554;7.812;2023-09-19T10:23:40;100148.75;;;20.42;94.83
78198;BME280;67472;51.554;7.812;2023-09-19T10:26:30;100139.47;;;20.44;92.00
78198;BME280;67472;51.554;7.812;2023-09-19T10:29:17;100133.28;;;20.44;91.42
78198;BME280;67472;51.554;7.812;2023-09-19T10:32:05;100128.34;;;20.67;91.57
78198;BME280;67472;51.554;7.812;2023-09-19T10:34:53;100132.47;;;20.76;90.58
78198;BME280;67472;51.554;7.812;2023-09-19T10:37:44;100139.56;;;21.10;90.34
78198;BME280;67472;51.554;7.812;2023-09-19T10:40:35;100125.25;;;21.16;87.08
78198;BME280;67472;51.554;7.812;2023-09-19T10:43:26;100116.53;;;21.40;85.64
78198;BME280;67472;51.554;7.812;2023-09-19T10:46:15;100122.91;;;21.59;85.43
78198;BME280;67472;51.554;7.812;2023-09-19T10:49:01;100112.34;;;21.64;83.93
78198;BME280;67472;51.554;7.812;2023-09-19T10:51:51;100115.38;;;21.74;83.36
78198;BME280;67472;51.554;7.812;2023-09-19T10:54:46;100114.13;;;21.83;80.99
78198;BME280;67472;51.554;7.812;2023-09-19T10:57:33;100100.91;;;21.88;79.93
78198;BME280;67472;51.554;7.812;2023-09-19T11:00:21;100111.34;;;21.45;79.69
78198;BME280;67472;51.554;7.812;2023-09-19T11:03:21;100112.53;;;21.69;80.06
78198;BME280;67472;51.554;7.812;2023-09-19T11:06:12;100114.53;;;21.80;79.86
78198;BME280;67472;51.554;7.812;2023-09-19T11:09:03;100118.38;;;21.59;79.81
78198;BME280;67472;51.554;7.812;2023-09-19T11:12:01;100114.44;;;21.49;80.59
78198;BME280;67472;51.554;7.812;2023-09-19T11:14:47;100101.25;;;21.47;79.27
78198;BME280;67472;51.554;7.812;2023-09-19T11:17:35;100099.66;;;21.20;79.18
78198;BME280;67472;51.554;7.812;2023-09-19T11:20:25;100117.63;;;21.19;81.24
78198;BME280;67472;51.554;7.812;2023-09-19T11:23:36;100104.53;;;21.42;80.46
78198;BME280;67472;51.554;7.812;2023-09-19T11:26:40;100100.09;;;21.74;78.39
78198;BME280;67472;51.554;7.812;2023-09-19T11:29:29;100084.38;;;21.71;76.79
78198;BME280;67472;51.554;7.812;2023-09-19T11:32:16;100088.06;;;21.83;76.59
78198;BME280;67472;51.554;7.812;2023-09-19T11:35:08;100080.50;;;21.61;74.70
78198;BME280;67472;51.554;7.812;2023-09-19T11:38:04;100078.69;;;22.06;74.37
78198;BME280;67472;51.554;7.812;2023-09-19T11:41:36;100081.88;;;22.21;74.12
78198;BME280;67472;51.554;7.812;2023-09-19T11:44:33;100081.63;;;22.60;73.86
78198;BME280;67472;51.554;7.812;2023-09-19T11:47:23;100091.22;;;22.99;74.77
78198;BME280;67472;51.554;7.812;2023-09-19T11:50:12;100058.06;;;22.80;69.37
78198;BME280;67472;51.554;7.812;2023-09-19T11:53:05;100062.50;;;22.68;68.31
78198;BME280;67472;51.554;7.812;2023-09-19T11:55:52;100052.16;;;22.40;67.07
78198;BME280;67472;51.554;7.812;2023-09-19T11:58:40;100059.25;;;22.60;67.36
78198;BME280;67472;51.554;7.812;2023-09-19T12:01:29;100072.47;;;22.92;67.94
78198;BME280;67472;51.554;7.812;2023-09-19T12:04:18;100066.16;;;22.80;66.85
78198;BME280;67472;51.554;7.812;2023-09-19T12:07:11;100070.78;;;22.67;67.17
78198;BME280;67472;51.554;7.812;2023-09-19T12:10:04;100082.69;;;22.84;67.04
78198;BME280;67472;51.554;7.812;2023-09-19T12:12:57;100074.75;;;22.33;67.06
78198;BME280;67472;51.554;7.812;2023-09-19T12:15:44;100096.53;;;22.56;69.22
78198;BME280;67472;51.554;7.812;2023-09-19T12:18:32;100093.97;;;22.43;69.48
78198;BME280;67472;51.554;7.812;2023-09-19T12:21:24;100083.31;;;22.23;70.05
78198;BME280;67472;51.554;7.812;2023-09-19T12:24:13;100081.53;;;22.11;68.96
78198;BME280;67472;51.554;7.812;2023-09-19T12:27:05;100074.97;;;22.00;68.94
78198;BME280;67472;51.554;7.812;2023-09-19T12:29:51;100079.25;;;22.45;69.81
78198;BME280;67472;51.554;7.812;2023-09-19T12:32:40;100060.31;;;22.27;68.19
78198;BME280;67472;51.554;7.812;2023-09-19T12:35:27;100046.53;;;22.17;67.86
78198;BME280;67472;51.554;7.812;2023-09-19T12:38:23;100062.69;;;22.42;68.34
78198;BME280;67472;51.554;7.812;2023-09-19T12:41:10;100050.91;;;22.43;67.84
78198;BME280;67472;51.554;7.812;2023-09-19T12:43:57;100051.97;;;22.35;66.64
78198;BME280;67472;51.554;7.812;2023-09-19T12:46:45;100060.72;;;22.31;67.36
78198;BME280;67472;51.554;7.812;2023-09-19T12:49:31;100042.00;;;22.42;65.89
78198;BME280;67472;51.554;7.812;2023-09-19T12:52:16;100038.69;;;22.90;66.42
78198;BME280;67472;51.554;7.812;2023-09-19T12:55:04;100038.38;;;22.80;65.97
78198;BME280;67472;51.554;7.812;2023-09-19T12:58:07;100024.03;;;22.36;64.93
78198;BME280;67472;51.554;7.812;2023-09-19T13:00:54;100027.22;;;22.51;64.83
78198;BME280;67472;51.554;7.812;2023-09-19T13:03:40;100037.06;;;22.64;65.74
78198;BME280;67472;51.554;7.812;2023-09-19T13:06:35;100041.06;;;22.80;66.23
78198;BME280;67472;51.554;7.812;2023-09-19T13:09:23;100046.66;;;23.03;67.69
78198;BME280;67472;51.554;7.812;2023-09-19T13:12:37;100037.28;;;23.05;66.96
78198;BME280;67472;51.554;7.812;2023-09-19T13:15:26;100037.81;;;23.14;67.31
78198;BME280;67472;51.554;7.812;2023-09-19T13:18:14;100020.56;;;22.79;66.37
78198;BME280;67472;51.554;7.812;2023-09-19T13:21:07;100044.81;;;22.79;67.85
78198;BME280;67472;51.554;7.812;2023-09-19T13:23:56;100049.50;;;23.08;68.91
78198;BME280;67472;51.554;7.812;2023-09-19T13:27:03;100043.22;;;22.71;68.30
78198;BME280;67472;51.554;7.812;2023-09-19T13:29:51;100045.91;;;23.14;68.67
78198;BME280;67472;51.554;7.812;2023-09-19T13:32:38;100045.88;;;23.39;68.45
78198;BME280;67472;51.554;7.812;2023-09-19T13:35:25;100030.56;;;23.15;66.89
78198;BME280;67472;51.554;7.812;2023-09-19T13:38:11;100033.59;;;22.82;66.14
78198;BME280;67472;51.554;7.812;2023-09-19T13:40:58;100028.28;;;22.93;66.21
78198;BME280;67472;51.554;7.812;2023-09-19T13:43:45;100042.44;;;22.89;67.51
78198;BME280;67472;51.554;7.812;2023-09-19T13:46:33;100046.78;;;23.08;67.58
78198;BME280;67472;51.554;7.812;2023-09-19T13:49:21;100043.66;;;22.68;68.72
78198;BME280;67472;51.554;7.812;2023-09-19T13:52:08;100051.25;;;22.78;69.16
78198;BME280;67472;51.554;7.812;2023-09-19T13:54:55;100044.25;;;23.13;68.71
78198;BME280;67472;51.554;7.812;2023-09-19T13:57:42;100031.84;;;23.12;66.92
78198;BME280;67472;51.554;7.812;2023-09-19T14:00:28;100025.94;;;23.22;67.17
78198;BME280;67472;51.554;7.812;2023-09-19T14:03:14;100020.81;;;23.32;66.76
78198;BME280;67472;51.554;7.812;2023-09-19T14:06:02;100009.53;;;23.59;67.11
78198;BME280;67472;51.554;7.812;2023-09-19T14:08:48;100013.25;;;23.77;67.06
78198;BME280;67472;51.554;7.812;2023-09-19T14:11:34;99991.00;;;23.63;65.24
78198;BME280;67472;51.554;7.812;2023-09-19T14:14:20;99982.81;;;23.40;63.01
78198;BME280;67472;51.554;7.812;2023-09-19T14:17:07;99988.88;;;23.53;62.84
78198;BME280;67472;51.554;7.812;2023-09-19T14:19:53;99978.53;;;23.32;62.67
78198;BME280;67472;51.554;7.812;2023-09-19T14:22:41;100005.34;;;23.27;62.60
78198;BME280;67472;51.554;7.812;2023-09-19T14:25:27;99999.44;;;23.19;62.37
78198;BME280;67472;51.554;7.812;2023-09-19T14:28:15;99994.41;;;23.22;61.14
78198;BME280;67472;51.554;7.812;2023-09-19T14:31:04;99982.75;;;22.92;60.48
78198;BME280;67472;51.554;7.812;2023-09-19T14:33:54;99982.72;;;22.74;60.80
78198;BME280;67472;51.554;7.812;2023-09-19T14:36:41;99983.06;;;22.34;60.13
78198;BME280;67472;51.554;7.812;2023-09-19T14:39:28;100009.50;;;22.62;61.43